sensor_id;sensor_type;location;lat;lon;timestamp;P1;durP1;ratioP1;P2;durP2;ratioP2
24859;SDS011;12936;52.006;4.350;2023-02-28T00:02:39;9.33;;;2.57;;
24859;SDS011;12936;52.006;4.350;2023-02-28T00:05:38;4.23;;;2.03;;
24859;SDS011;12936;52.006;4.350;2023-02-28T00:08:09;4.37;;;2.10;;
24859;SDS011;12936;52.006;4.350;2023-02-28T00:11:07;3.37;;;2.30;;
24859;SDS011;12936;52.006;4.350;2023-02-28T00:13:40;4.33;;;2.43;;
24859;SDS011;12936;52.006;4.350;2023-02-28T00:16:17;4.67;;;2.13;;
24859;SDS011;12936;52.006;4.350;2023-02-28T00:19:27;3.97;;;2.47;;
24859;SDS011;12936;52.006;4.350;2023-02-28T00:21:58;4.40;;;2.10;;
24859;SDS011;12936;52.006;4.350;2023-02-28T00:25:07;5.30;;;2.10;;
24859;SDS011;12936;52.006;4.350;2023-02-28T00:27:39;5.43;;;2.67;;
24859;SDS011;12936;52.006;4.350;2023-02-28T00:30:12;5.30;;;2.10;;
24859;SDS011;12936;52.006;4.350;2023-02-28T00:32:45;5.47;;;1.93;;
24859;SDS011;12936;52.006;4.350;2023-02-28T00:35:13;4.93;;;2.07;;
24859;SDS011;12936;52.006;4.350;2023-02-28T00:37:43;4.03;;;2.00;;
24859;SDS011;12936;52.006;4.350;2023-02-28T00:40:11;8.47;;;2.33;;
24859;SDS011;12936;52.006;4.350;2023-02-28T00:42:43;4.23;;;2.13;;
24859;SDS011;12936;52.006;4.350;2023-02-28T00:45:11;7.50;;;2.17;;
24859;SDS011;12936;52.006;4.350;2023-02-28T00:47:40;5.03;;;2.50;;
24859;SDS011;12936;52.006;4.350;2023-02-28T00:50:30;3.50;;;1.97;;
24859;SDS011;12936;52.006;4.350;2023-02-28T00:53:26;4.93;;;2.00;;
24859;SDS011;12936;52.006;4.350;2023-02-28T00:55:58;5.57;;;2.00;;
24859;SDS011;12936;52.006;4.350;2023-02-28T00:58:30;4.13;;;1.97;;
24859;SDS011;12936;52.006;4.350;2023-02-28T01:01:20;5.83;;;2.03;;
24859;SDS011;12936;52.006;4.350;2023-02-28T01:03:54;5.97;;;1.97;;
24859;SDS011;12936;52.006;4.350;2023-02-28T01:06:23;4.57;;;2.23;;
24859;SDS011;12936;52.006;4.350;2023-02-28T01:08:57;4.23;;;2.13;;
24859;SDS011;12936;52.006;4.350;2023-02-28T01:11:26;4.33;;;2.27;;
24859;SDS011;12936;52.006;4.350;2023-02-28T01:13:57;4.53;;;2.50;;
24859;SDS011;12936;52.006;4.350;2023-02-28T01:16:27;4.40;;;2.20;;
24859;SDS011;12936;52.006;4.350;2023-02-28T01:18:59;4.47;;;2.10;;
24859;SDS011;12936;52.006;4.350;2023-02-28T01:21:27;6.70;;;2.03;;
24859;SDS011;12936;52.006;4.350;2023-02-28T01:24:01;5.07;;;1.97;;
24859;SDS011;12936;52.006;4.350;2023-02-28T01:26:34;6.03;;;2.50;;
24859;SDS011;12936;52.006;4.350;2023-02-28T01:29:02;5.57;;;1.93;;
24859;SDS011;12936;52.006;4.350;2023-02-28T01:31:31;5.00;;;2.07;;
24859;SDS011;12936;52.006;4.350;2023-02-28T01:34:01;4.53;;;2.37;;
24859;SDS011;12936;52.006;4.350;2023-02-28T01:36:30;3.47;;;2.23;;
24859;SDS011;12936;52.006;4.350;2023-02-28T01:39:01;3.57;;;2.07;;
24859;SDS011;12936;52.006;4.350;2023-02-28T01:41:31;6.30;;;2.67;;
24859;SDS011;12936;52.006;4.350;2023-02-28T01:47:27;4.77;;;2.00;;
24859;SDS011;12936;52.006;4.350;2023-02-28T01:50:03;3.93;;;2.73;;
24859;SDS011;12936;52.006;4.350;2023-02-28T01:52:35;5.70;;;2.60;;
24859;SDS011;12936;52.006;4.350;2023-02-28T01:55:09;4.70;;;2.30;;
24859;SDS011;12936;52.006;4.350;2023-02-28T01:57:41;4.13;;;2.27;;
24859;SDS011;12936;52.006;4.350;2023-02-28T02:00:14;3.37;;;2.60;;
24859;SDS011;12936;52.006;4.350;2023-02-28T02:02:46;4.47;;;2.30;;
24859;SDS011;12936;52.006;4.350;2023-02-28T02:05:18;6.10;;;2.40;;
24859;SDS011;12936;52.006;4.350;2023-02-28T02:07:54;5.47;;;2.53;;
24859;SDS011;12936;52.006;4.350;2023-02-28T02:10:29;3.00;;;2.30;;
24859;SDS011;12936;52.006;4.350;2023-02-28T02:13:18;5.77;;;2.60;;
24859;SDS011;12936;52.006;4.350;2023-02-28T02:16:13;3.67;;;2.20;;
24859;SDS011;12936;52.006;4.350;2023-02-28T02:18:54;11.87;;;2.93;;
24859;SDS011;12936;52.006;4.350;2023-02-28T02:21:35;4.97;;;2.87;;
24859;SDS011;12936;52.006;4.350;2023-02-28T02:27:23;5.70;;;2.83;;
24859;SDS011;12936;52.006;4.350;2023-02-28T02:30:06;7.27;;;2.87;;
24859;SDS011;12936;52.006;4.350;2023-02-28T02:35:57;6.20;;;2.93;;
24859;SDS011;12936;52.006;4.350;2023-02-28T02:38:34;5.53;;;2.70;;
24859;SDS011;12936;52.006;4.350;2023-02-28T02:41:11;6.40;;;3.00;;
24859;SDS011;12936;52.006;4.350;2023-02-28T02:44:31;6.10;;;2.80;;
24859;SDS011;12936;52.006;4.350;2023-02-28T02:47:15;6.87;;;3.53;;
24859;SDS011;12936;52.006;4.350;2023-02-28T02:49:51;5.47;;;2.73;;
24859;SDS011;12936;52.006;4.350;2023-02-28T02:52:24;5.67;;;2.83;;
24859;SDS011;12936;52.006;4.350;2023-02-28T02:55:07;4.83;;;2.70;;
24859;SDS011;12936;52.006;4.350;2023-02-28T02:57:41;5.57;;;2.90;;
24859;SDS011;12936;52.006;4.350;2023-02-28T03:00:16;6.13;;;2.97;;
24859;SDS011;12936;52.006;4.350;2023-02-28T03:02:49;10.80;;;3.10;;
24859;SDS011;12936;52.006;4.350;2023-02-28T03:05:23;6.03;;;3.20;;
24859;SDS011;12936;52.006;4.350;2023-02-28T03:07:55;7.93;;;3.13;;
24859;SDS011;12936;52.006;4.350;2023-02-28T03:10:33;11.60;;;2.87;;
24859;SDS011;12936;52.006;4.350;2023-02-28T03:13:15;5.07;;;3.00;;
24859;SDS011;12936;52.006;4.350;2023-02-28T03:16:05;7.63;;;2.63;;
24859;SDS011;12936;52.006;4.350;2023-02-28T03:18:48;8.37;;;2.90;;
24859;SDS011;12936;52.006;4.350;2023-02-28T03:21:23;6.03;;;3.40;;
24859;SDS011;12936;52.006;4.350;2023-02-28T03:24:01;6.30;;;3.43;;
24859;SDS011;12936;52.006;4.350;2023-02-28T03:26:34;9.70;;;3.00;;
24859;SDS011;12936;52.006;4.350;2023-02-28T03:29:07;4.03;;;2.90;;
24859;SDS011;12936;52.006;4.350;2023-02-28T03:31:45;4.87;;;3.13;;
24859;SDS011;12936;52.006;4.350;2023-02-28T03:34:19;9.47;;;3.27;;
24859;SDS011;12936;52.006;4.350;2023-02-28T03:36:53;5.00;;;2.90;;
24859;SDS011;12936;52.006;4.350;2023-02-28T03:39:30;5.20;;;3.00;;
24859;SDS011;12936;52.006;4.350;2023-02-28T03:42:23;7.30;;;3.07;;
24859;SDS011;12936;52.006;4.350;2023-02-28T03:44:56;5.33;;;3.03;;
24859;SDS011;12936;52.006;4.350;2023-02-28T03:47:29;9.93;;;3.20;;
24859;SDS011;12936;52.006;4.350;2023-02-28T03:50:08;7.37;;;3.43;;
24859;SDS011;12936;52.006;4.350;2023-02-28T03:52:41;6.10;;;3.07;;
24859;SDS011;12936;52.006;4.350;2023-02-28T03:55:18;7.30;;;3.20;;
24859;SDS011;12936;52.006;4.350;2023-02-28T03:57:52;12.53;;;3.53;;
24859;SDS011;12936;52.006;4.350;2023-02-28T04:00:26;6.43;;;3.27;;
24859;SDS011;12936;52.006;4.350;2023-02-28T04:02:59;7.17;;;3.23;;
24859;SDS011;12936;52.006;4.350;2023-02-28T04:05:28;7.80;;;4.23;;
24859;SDS011;12936;52.006;4.350;2023-02-28T04:08:03;6.23;;;3.50;;
24859;SDS011;12936;52.006;4.350;2023-02-28T04:10:33;9.53;;;3.70;;
24859;SDS011;12936;52.006;4.350;2023-02-28T04:13:22;6.80;;;3.73;;
24859;SDS011;12936;52.006;4.350;2023-02-28T04:15:53;10.50;;;4.07;;
24859;SDS011;12936;52.006;4.350;2023-02-28T04:19:01;5.40;;;3.70;;
24859;SDS011;12936;52.006;4.350;2023-02-28T04:21:31;6.87;;;3.67;;
24859;SDS011;12936;52.006;4.350;2023-02-28T04:24:03;6.47;;;3.60;;
24859;SDS011;12936;52.006;4.350;2023-02-28T04:26:36;7.87;;;3.80;;
24859;SDS011;12936;52.006;4.350;2023-02-28T04:29:07;6.03;;;3.83;;
24859;SDS011;12936;52.006;4.350;2023-02-28T04:31:37;11.20;;;4.30;;
24859;SDS011;12936;52.006;4.350;2023-02-28T04:34:06;7.83;;;4.50;;
24859;SDS011;12936;52.006;4.350;2023-02-28T04:36:39;7.87;;;4.00;;
24859;SDS011;12936;52.006;4.350;2023-02-28T04:39:08;6.13;;;3.67;;
24859;SDS011;12936;52.006;4.350;2023-02-28T04:41:38;10.70;;;4.47;;
24859;SDS011;12936;52.006;4.350;2023-02-28T04:44:09;9.00;;;4.10;;
24859;SDS011;12936;52.006;4.350;2023-02-28T04:46:37;6.40;;;4.10;;
24859;SDS011;12936;52.006;4.350;2023-02-28T04:49:28;8.17;;;4.40;;
24859;SDS011;12936;52.006;4.350;2023-02-28T04:51:59;11.00;;;4.00;;
24859;SDS011;12936;52.006;4.350;2023-02-28T04:54:36;10.33;;;4.37;;
24859;SDS011;12936;52.006;4.350;2023-02-28T04:57:09;8.13;;;4.43;;
24859;SDS011;12936;52.006;4.350;2023-02-28T04:59:37;7.87;;;4.27;;
24859;SDS011;12936;52.006;4.350;2023-02-28T05:02:13;9.93;;;4.70;;
24859;SDS011;12936;52.006;4.350;2023-02-28T05:04:50;8.40;;;4.60;;
24859;SDS011;12936;52.006;4.350;2023-02-28T05:07:40;10.67;;;4.87;;
24859;SDS011;12936;52.006;4.350;2023-02-28T05:10:08;7.33;;;4.17;;
24859;SDS011;12936;52.006;4.350;2023-02-28T05:12:39;9.50;;;4.37;;
24859;SDS011;12936;52.006;4.350;2023-02-28T05:15:10;6.57;;;4.63;;
24859;SDS011;12936;52.006;4.350;2023-02-28T05:17:43;9.10;;;5.10;;
24859;SDS011;12936;52.006;4.350;2023-02-28T05:20:14;8.30;;;5.20;;
24859;SDS011;12936;52.006;4.350;2023-02-28T05:22:43;7.93;;;4.97;;
24859;SDS011;12936;52.006;4.350;2023-02-28T05:25:13;12.43;;;4.80;;
24859;SDS011;12936;52.006;4.350;2023-02-28T05:27:47;7.00;;;4.67;;
24859;SDS011;12936;52.006;4.350;2023-02-28T05:30:38;7.67;;;4.73;;
24859;SDS011;12936;52.006;4.350;2023-02-28T05:33:10;6.70;;;4.67;;
24859;SDS011;12936;52.006;4.350;2023-02-28T05:35:41;9.27;;;4.87;;
24859;SDS011;12936;52.006;4.350;2023-02-28T05:38:13;6.90;;;4.83;;
24859;SDS011;12936;52.006;4.350;2023-02-28T05:40:42;7.40;;;4.60;;
24859;SDS011;12936;52.006;4.350;2023-02-28T05:43:13;8.63;;;5.37;;
24859;SDS011;12936;52.006;4.350;2023-02-28T05:45:42;12.33;;;5.83;;
24859;SDS011;12936;52.006;4.350;2023-02-28T05:48:13;10.30;;;4.93;;
24859;SDS011;12936;52.006;4.350;2023-02-28T05:51:03;10.43;;;5.33;;
24859;SDS011;12936;52.006;4.350;2023-02-28T05:53:37;8.53;;;5.40;;
24859;SDS011;12936;52.006;4.350;2023-02-28T05:56:13;11.13;;;5.73;;
24859;SDS011;12936;52.006;4.350;2023-02-28T05:58:50;11.60;;;6.17;;
24859;SDS011;12936;52.006;4.350;2023-02-28T06:01:22;8.70;;;5.40;;
24859;SDS011;12936;52.006;4.350;2023-02-28T06:03:57;10.97;;;5.40;;
24859;SDS011;12936;52.006;4.350;2023-02-28T06:06:33;8.87;;;5.50;;
24859;SDS011;12936;52.006;4.350;2023-02-28T06:09:10;7.77;;;5.20;;
24859;SDS011;12936;52.006;4.350;2023-02-28T06:11:41;8.67;;;6.10;;
24859;SDS011;12936;52.006;4.350;2023-02-28T06:14:17;11.63;;;5.83;;
24859;SDS011;12936;52.006;4.350;2023-02-28T06:16:46;7.67;;;5.80;;
24859;SDS011;12936;52.006;4.350;2023-02-28T06:19:15;8.73;;;6.10;;
24859;SDS011;12936;52.006;4.350;2023-02-28T06:21:43;8.83;;;6.23;;
24859;SDS011;12936;52.006;4.350;2023-02-28T06:24:14;8.17;;;5.90;;
24859;SDS011;12936;52.006;4.350;2023-02-28T06:26:42;9.93;;;6.27;;
24859;SDS011;12936;52.006;4.350;2023-02-28T06:29:10;13.67;;;6.00;;
24859;SDS011;12936;52.006;4.350;2023-02-28T06:31:44;9.00;;;5.93;;
24859;SDS011;12936;52.006;4.350;2023-02-28T06:34:13;11.37;;;5.80;;
24859;SDS011;12936;52.006;4.350;2023-02-28T06:36:42;8.70;;;5.97;;
24859;SDS011;12936;52.006;4.350;2023-02-28T06:39:10;8.27;;;5.97;;
24859;SDS011;12936;52.006;4.350;2023-02-28T06:41:38;8.90;;;6.07;;
24859;SDS011;12936;52.006;4.350;2023-02-28T06:44:21;10.07;;;5.70;;
24859;SDS011;12936;52.006;4.350;2023-02-28T06:46:51;8.27;;;6.10;;
24859;SDS011;12936;52.006;4.350;2023-02-28T06:49:19;8.80;;;5.90;;
24859;SDS011;12936;52.006;4.350;2023-02-28T06:51:47;8.90;;;6.33;;
24859;SDS011;12936;52.006;4.350;2023-02-28T06:54:16;10.60;;;5.63;;
24859;SDS011;12936;52.006;4.350;2023-02-28T06:56:44;6.53;;;5.27;;
24859;SDS011;12936;52.006;4.350;2023-02-28T06:59:13;8.50;;;5.33;;
24859;SDS011;12936;52.006;4.350;2023-02-28T07:01:41;7.43;;;5.13;;
24859;SDS011;12936;52.006;4.350;2023-02-28T07:04:11;6.43;;;4.30;;
24859;SDS011;12936;52.006;4.350;2023-02-28T07:06:39;8.27;;;4.70;;
24859;SDS011;12936;52.006;4.350;2023-02-28T07:09:07;6.97;;;4.60;;
24859;SDS011;12936;52.006;4.350;2023-02-28T07:11:36;5.77;;;4.43;;
24859;SDS011;12936;52.006;4.350;2023-02-28T07:14:05;8.93;;;4.17;;
24859;SDS011;12936;52.006;4.350;2023-02-28T07:16:33;11.40;;;4.87;;
24859;SDS011;12936;52.006;4.350;2023-02-28T07:19:01;7.47;;;4.37;;
24859;SDS011;12936;52.006;4.350;2023-02-28T07:21:30;9.57;;;4.60;;
24859;SDS011;12936;52.006;4.350;2023-02-28T07:23:58;7.23;;;4.17;;
24859;SDS011;12936;52.006;4.350;2023-02-28T07:26:27;6.30;;;3.43;;
24859;SDS011;12936;52.006;4.350;2023-02-28T07:28:55;8.57;;;3.60;;
24859;SDS011;12936;52.006;4.350;2023-02-28T07:31:23;15.30;;;4.50;;
24859;SDS011;12936;52.006;4.350;2023-02-28T07:33:51;7.23;;;3.23;;
24859;SDS011;12936;52.006;4.350;2023-02-28T07:36:20;5.40;;;3.77;;
24859;SDS011;12936;52.006;4.350;2023-02-28T07:38:49;9.70;;;4.50;;
24859;SDS011;12936;52.006;4.350;2023-02-28T07:41:18;11.17;;;4.30;;
24859;SDS011;12936;52.006;4.350;2023-02-28T07:43:47;6.03;;;3.10;;
24859;SDS011;12936;52.006;4.350;2023-02-28T07:46:16;4.53;;;2.70;;
24859;SDS011;12936;52.006;4.350;2023-02-28T07:48:46;5.70;;;3.47;;
24859;SDS011;12936;52.006;4.350;2023-02-28T07:51:15;10.23;;;3.50;;
24859;SDS011;12936;52.006;4.350;2023-02-28T07:53:43;7.80;;;3.67;;
24859;SDS011;12936;52.006;4.350;2023-02-28T07:56:12;6.67;;;3.57;;
24859;SDS011;12936;52.006;4.350;2023-02-28T07:58:40;5.40;;;3.63;;
24859;SDS011;12936;52.006;4.350;2023-02-28T08:01:09;6.10;;;3.40;;
24859;SDS011;12936;52.006;4.350;2023-02-28T08:03:38;7.13;;;3.47;;
24859;SDS011;12936;52.006;4.350;2023-02-28T08:06:07;5.50;;;3.27;;
24859;SDS011;12936;52.006;4.350;2023-02-28T08:08:42;4.77;;;3.63;;
24859;SDS011;12936;52.006;4.350;2023-02-28T08:11:10;5.73;;;4.13;;
24859;SDS011;12936;52.006;4.350;2023-02-28T08:13:41;6.40;;;4.53;;
24859;SDS011;12936;52.006;4.350;2023-02-28T08:16:10;5.60;;;3.80;;
24859;SDS011;12936;52.006;4.350;2023-02-28T08:18:41;6.27;;;3.90;;
24859;SDS011;12936;52.006;4.350;2023-02-28T08:21:09;6.90;;;4.03;;
24859;SDS011;12936;52.006;4.350;2023-02-28T08:23:38;6.93;;;3.67;;
24859;SDS011;12936;52.006;4.350;2023-02-28T08:26:06;6.30;;;3.90;;
24859;SDS011;12936;52.006;4.350;2023-02-28T08:28:36;5.27;;;3.80;;
24859;SDS011;12936;52.006;4.350;2023-02-28T08:31:06;0.00;;;0.00;;
24859;SDS011;12936;52.006;4.350;2023-02-28T08:33:35;0.00;;;0.00;;
24859;SDS011;12936;52.006;4.350;2023-02-28T08:36:05;0.00;;;0.00;;
24859;SDS011;12936;52.006;4.350;2023-02-28T08:38:35;0.20;;;0.20;;
24859;SDS011;12936;52.006;4.350;2023-02-28T08:41:04;0.00;;;0.00;;
24859;SDS011;12936;52.006;4.350;2023-02-28T08:43:36;0.00;;;0.00;;
24859;SDS011;12936;52.006;4.350;2023-02-28T08:46:05;0.00;;;0.00;;
24859;SDS011;12936;52.006;4.350;2023-02-28T08:48:35;0.00;;;0.00;;
24859;SDS011;12936;52.006;4.350;2023-02-28T08:51:05;0.00;;;0.00;;
24859;SDS011;12936;52.006;4.350;2023-02-28T08:53:35;0.00;;;0.00;;
24859;SDS011;12936;52.006;4.350;2023-02-28T08:56:06;0.00;;;0.00;;
24859;SDS011;12936;52.006;4.350;2023-02-28T08:58:36;0.00;;;0.00;;
24859;SDS011;12936;52.006;4.350;2023-02-28T09:01:08;0.00;;;0.00;;
24859;SDS011;12936;52.006;4.350;2023-02-28T09:03:38;0.00;;;0.00;;
24859;SDS011;12936;52.006;4.350;2023-02-28T09:06:07;0.00;;;0.00;;
24859;SDS011;12936;52.006;4.350;2023-02-28T09:08:37;0.00;;;0.00;;
24859;SDS011;12936;52.006;4.350;2023-02-28T09:11:05;0.03;;;0.03;;
24859;SDS011;12936;52.006;4.350;2023-02-28T09:13:34;0.10;;;0.10;;
24859;SDS011;12936;52.006;4.350;2023-02-28T09:16:05;0.00;;;0.00;;
24859;SDS011;12936;52.006;4.350;2023-02-28T09:18:35;0.00;;;0.00;;
24859;SDS011;12936;52.006;4.350;2023-02-28T09:21:04;0.00;;;0.00;;
24859;SDS011;12936;52.006;4.350;2023-02-28T09:23:33;0.00;;;0.00;;
24859;SDS011;12936;52.006;4.350;2023-02-28T09:26:04;0.00;;;0.00;;
24859;SDS011;12936;52.006;4.350;2023-02-28T09:28:33;0.00;;;0.00;;
24859;SDS011;12936;52.006;4.350;2023-02-28T09:31:02;0.00;;;0.00;;
24859;SDS011;12936;52.006;4.350;2023-02-28T09:33:31;0.00;;;0.00;;
24859;SDS011;12936;52.006;4.350;2023-02-28T09:36:00;0.00;;;0.00;;
24859;SDS011;12936;52.006;4.350;2023-02-28T09:38:31;0.00;;;0.00;;
24859;SDS011;12936;52.006;4.350;2023-02-28T09:41:00;0.00;;;0.00;;
24859;SDS011;12936;52.006;4.350;2023-02-28T09:43:31;0.00;;;0.00;;
24859;SDS011;12936;52.006;4.350;2023-02-28T09:46:05;0.23;;;0.23;;
24859;SDS011;12936;52.006;4.350;2023-02-28T09:48:42;0.60;;;0.60;;
24859;SDS011;12936;52.006;4.350;2023-02-28T09:51:15;0.10;;;0.10;;
24859;SDS011;12936;52.006;4.350;2023-02-28T09:54:00;0.00;;;0.00;;
24859;SDS011;12936;52.006;4.350;2023-02-28T09:56:30;0.10;;;0.10;;
24859;SDS011;12936;52.006;4.350;2023-02-28T09:59:04;0.00;;;0.00;;
24859;SDS011;12936;52.006;4.350;2023-02-28T10:01:43;0.00;;;0.00;;
24859;SDS011;12936;52.006;4.350;2023-02-28T10:04:19;0.00;;;0.00;;
24859;SDS011;12936;52.006;4.350;2023-02-28T10:07:02;0.00;;;0.00;;
24859;SDS011;12936;52.006;4.350;2023-02-28T10:09:43;0.03;;;0.03;;
24859;SDS011;12936;52.006;4.350;2023-02-28T10:12:14;0.00;;;0.00;;
24859;SDS011;12936;52.006;4.350;2023-02-28T10:14:45;0.00;;;0.00;;
24859;SDS011;12936;52.006;4.350;2023-02-28T10:17:18;0.00;;;0.00;;
24859;SDS011;12936;52.006;4.350;2023-02-28T10:19:51;0.10;;;0.10;;
24859;SDS011;12936;52.006;4.350;2023-02-28T10:22:26;0.10;;;0.10;;
24859;SDS011;12936;52.006;4.350;2023-02-28T10:25:04;0.10;;;0.10;;
24859;SDS011;12936;52.006;4.350;2023-02-28T10:27:45;1.90;;;0.93;;
24859;SDS011;12936;52.006;4.350;2023-02-28T10:30:13;0.30;;;0.30;;
24859;SDS011;12936;52.006;4.350;2023-02-28T10:32:44;0.00;;;0.00;;
24859;SDS011;12936;52.006;4.350;2023-02-28T10:35:17;0.00;;;0.00;;
24859;SDS011;12936;52.006;4.350;2023-02-28T10:37:47;0.53;;;0.53;;
24859;SDS011;12936;52.006;4.350;2023-02-28T10:40:27;0.10;;;0.10;;
24859;SDS011;12936;52.006;4.350;2023-02-28T10:42:58;0.00;;;0.00;;
24859;SDS011;12936;52.006;4.350;2023-02-28T10:45:30;0.00;;;0.00;;
24859;SDS011;12936;52.006;4.350;2023-02-28T10:48:03;0.53;;;0.53;;
24859;SDS011;12936;52.006;4.350;2023-02-28T10:50:35;0.23;;;0.23;;
24859;SDS011;12936;52.006;4.350;2023-02-28T10:53:17;0.00;;;0.00;;
24859;SDS011;12936;52.006;4.350;2023-02-28T10:56:04;0.00;;;0.00;;
24859;SDS011;12936;52.006;4.350;2023-02-28T10:58:44;0.00;;;0.00;;
24859;SDS011;12936;52.006;4.350;2023-02-28T11:01:17;0.00;;;0.00;;
24859;SDS011;12936;52.006;4.350;2023-02-28T11:03:48;0.03;;;0.03;;
24859;SDS011;12936;52.006;4.350;2023-02-28T11:06:18;0.00;;;0.00;;
24859;SDS011;12936;52.006;4.350;2023-02-28T11:08:51;0.00;;;0.00;;
24859;SDS011;12936;52.006;4.350;2023-02-28T11:11:21;0.00;;;0.00;;
24859;SDS011;12936;52.006;4.350;2023-02-28T11:13:53;0.10;;;0.10;;
24859;SDS011;12936;52.006;4.350;2023-02-28T11:16:31;0.00;;;0.00;;
24859;SDS011;12936;52.006;4.350;2023-02-28T11:19:02;5.20;;;1.03;;
24859;SDS011;12936;52.006;4.350;2023-02-28T11:21:33;0.00;;;0.00;;
24859;SDS011;12936;52.006;4.350;2023-02-28T11:24:12;0.03;;;0.03;;
24859;SDS011;12936;52.006;4.350;2023-02-28T11:26:48;0.00;;;0.00;;
24859;SDS011;12936;52.006;4.350;2023-02-28T11:29:18;0.00;;;0.00;;
24859;SDS011;12936;52.006;4.350;2023-02-28T11:34:37;0.00;;;0.00;;
24859;SDS011;12936;52.006;4.350;2023-02-28T11:37:11;0.00;;;0.00;;
24859;SDS011;12936;52.006;4.350;2023-02-28T11:39:43;0.00;;;0.00;;
24859;SDS011;12936;52.006;4.350;2023-02-28T11:42:16;0.00;;;0.00;;
24859;SDS011;12936;52.006;4.350;2023-02-28T11:45:01;0.00;;;0.00;;
24859;SDS011;12936;52.006;4.350;2023-02-28T11:47:38;0.00;;;0.00;;
24859;SDS011;12936;52.006;4.350;2023-02-28T11:50:20;0.00;;;0.00;;
24859;SDS011;12936;52.006;4.350;2023-02-28T11:53:05;0.00;;;0.00;;
24859;SDS011;12936;52.006;4.350;2023-02-28T11:55:42;0.00;;;0.00;;
24859;SDS011;12936;52.006;4.350;2023-02-28T12:01:26;0.00;;;0.00;;
24859;SDS011;12936;52.006;4.350;2023-02-28T12:04:08;0.00;;;0.00;;
24859;SDS011;12936;52.006;4.350;2023-02-28T12:06:47;0.00;;;0.00;;
24859;SDS011;12936;52.006;4.350;2023-02-28T12:12:18;0.00;;;0.00;;
24859;SDS011;12936;52.006;4.350;2023-02-28T12:15:03;0.00;;;0.00;;
24859;SDS011;12936;52.006;4.350;2023-02-28T12:17:44;0.00;;;0.00;;
24859;SDS011;12936;52.006;4.350;2023-02-28T12:20:25;0.00;;;0.00;;
24859;SDS011;12936;52.006;4.350;2023-02-28T12:23:04;0.00;;;0.00;;
24859;SDS011;12936;52.006;4.350;2023-02-28T12:25:55;0.07;;;0.07;;
24859;SDS011;12936;52.006;4.350;2023-02-28T12:28:31;0.50;;;0.50;;
24859;SDS011;12936;52.006;4.350;2023-02-28T12:31:04;3.00;;;0.83;;
24859;SDS011;12936;52.006;4.350;2023-02-28T12:33:38;0.40;;;0.40;;
24859;SDS011;12936;52.006;4.350;2023-02-28T12:36:13;0.00;;;0.00;;
24859;SDS011;12936;52.006;4.350;2023-02-28T12:38:47;0.00;;;0.00;;
24859;SDS011;12936;52.006;4.350;2023-02-28T12:41:25;0.30;;;0.30;;
24859;SDS011;12936;52.006;4.350;2023-02-28T12:44:01;0.00;;;0.00;;
24859;SDS011;12936;52.006;4.350;2023-02-28T12:46:33;0.00;;;0.00;;
24859;SDS011;12936;52.006;4.350;2023-02-28T12:49:06;0.00;;;0.00;;
24859;SDS011;12936;52.006;4.350;2023-02-28T12:51:37;0.00;;;0.00;;
24859;SDS011;12936;52.006;4.350;2023-02-28T12:54:14;4.20;;;1.87;;
24859;SDS011;12936;52.006;4.350;2023-02-28T12:56:49;3.80;;;2.50;;
24859;SDS011;12936;52.006;4.350;2023-02-28T12:59:25;2.27;;;2.00;;
24859;SDS011;12936;52.006;4.350;2023-02-28T13:02:02;5.70;;;2.40;;
24859;SDS011;12936;52.006;4.350;2023-02-28T13:04:47;2.73;;;2.40;;
24859;SDS011;12936;52.006;4.350;2023-02-28T13:10:38;3.53;;;2.83;;
24859;SDS011;12936;52.006;4.350;2023-02-28T13:13:13;4.30;;;2.33;;
24859;SDS011;12936;52.006;4.350;2023-02-28T13:16:02;5.13;;;2.50;;
24859;SDS011;12936;52.006;4.350;2023-02-28T13:18:33;3.43;;;2.40;;
24859;SDS011;12936;52.006;4.350;2023-02-28T13:21:06;2.57;;;2.27;;
24859;SDS011;12936;52.006;4.350;2023-02-28T13:29:37;2.77;;;2.20;;
24859;SDS011;12936;52.006;4.350;2023-02-28T13:32:31;3.60;;;2.33;;
24859;SDS011;12936;52.006;4.350;2023-02-28T13:35:15;2.67;;;2.10;;
24859;SDS011;12936;52.006;4.350;2023-02-28T13:44:08;5.40;;;2.07;;
24859;SDS011;12936;52.006;4.350;2023-02-28T13:49:51;3.00;;;2.27;;
24859;SDS011;12936;52.006;4.350;2023-02-28T13:52:21;3.90;;;2.57;;
24859;SDS011;12936;52.006;4.350;2023-02-28T13:54:56;3.77;;;2.43;;
24859;SDS011;12936;52.006;4.350;2023-02-28T13:57:42;4.17;;;2.50;;
24859;SDS011;12936;52.006;4.350;2023-02-28T14:00:26;3.60;;;2.93;;
24859;SDS011;12936;52.006;4.350;2023-02-28T14:03:19;3.60;;;1.97;;
24859;SDS011;12936;52.006;4.350;2023-02-28T14:06:15;2.40;;;2.10;;
24859;SDS011;12936;52.006;4.350;2023-02-28T14:08:52;4.20;;;2.20;;
24859;SDS011;12936;52.006;4.350;2023-02-28T14:11:25;2.87;;;2.20;;
24859;SDS011;12936;52.006;4.350;2023-02-28T14:13:56;2.97;;;2.30;;
24859;SDS011;12936;52.006;4.350;2023-02-28T14:16:25;2.70;;;2.40;;
24859;SDS011;12936;52.006;4.350;2023-02-28T14:18:58;4.33;;;2.50;;
24859;SDS011;12936;52.006;4.350;2023-02-28T14:21:30;3.60;;;2.43;;
24859;SDS011;12936;52.006;4.350;2023-02-28T14:24:06;6.17;;;2.33;;
24859;SDS011;12936;52.006;4.350;2023-02-28T14:32:59;3.30;;;2.50;;
24859;SDS011;12936;52.006;4.350;2023-02-28T14:35:43;3.30;;;2.70;;
24859;SDS011;12936;52.006;4.350;2023-02-28T14:38:23;3.63;;;2.33;;
24859;SDS011;12936;52.006;4.350;2023-02-28T14:40:55;5.93;;;2.97;;
24859;SDS011;12936;52.006;4.350;2023-02-28T14:43:26;2.90;;;2.40;;
24859;SDS011;12936;52.006;4.350;2023-02-28T14:45:56;2.63;;;2.10;;
24859;SDS011;12936;52.006;4.350;2023-02-28T14:48:27;4.00;;;2.40;;
24859;SDS011;12936;52.006;4.350;2023-02-28T14:50:57;3.67;;;2.20;;
24859;SDS011;12936;52.006;4.350;2023-02-28T14:53:28;3.77;;;2.50;;
24859;SDS011;12936;52.006;4.350;2023-02-28T14:56:02;2.87;;;2.20;;
24859;SDS011;12936;52.006;4.350;2023-02-28T14:58:31;2.17;;;1.80;;
24859;SDS011;12936;52.006;4.350;2023-02-28T15:01:01;2.77;;;2.20;;
24859;SDS011;12936;52.006;4.350;2023-02-28T15:03:32;3.83;;;2.57;;
24859;SDS011;12936;52.006;4.350;2023-02-28T15:06:04;3.37;;;2.20;;
24859;SDS011;12936;52.006;4.350;2023-02-28T15:08:33;3.50;;;2.13;;
24859;SDS011;12936;52.006;4.350;2023-02-28T15:11:03;3.43;;;2.13;;
24859;SDS011;12936;52.006;4.350;2023-02-28T15:13:36;2.73;;;1.90;;
24859;SDS011;12936;52.006;4.350;2023-02-28T15:16:08;2.33;;;2.07;;
24859;SDS011;12936;52.006;4.350;2023-02-28T15:18:42;4.90;;;2.30;;
24859;SDS011;12936;52.006;4.350;2023-02-28T15:21:15;2.30;;;1.90;;
24859;SDS011;12936;52.006;4.350;2023-02-28T15:23:45;3.97;;;2.20;;
24859;SDS011;12936;52.006;4.350;2023-02-28T15:26:18;4.50;;;2.20;;
24859;SDS011;12936;52.006;4.350;2023-02-28T15:28:57;3.10;;;1.90;;
24859;SDS011;12936;52.006;4.350;2023-02-28T15:31:28;4.90;;;2.10;;
24859;SDS011;12936;52.006;4.350;2023-02-28T15:34:17;3.60;;;2.13;;
24859;SDS011;12936;52.006;4.350;2023-02-28T15:36:52;1.93;;;1.50;;
24859;SDS011;12936;52.006;4.350;2023-02-28T15:39:22;3.40;;;1.80;;
24859;SDS011;12936;52.006;4.350;2023-02-28T15:44:39;3.47;;;2.20;;
24859;SDS011;12936;52.006;4.350;2023-02-28T15:47:14;2.10;;;1.80;;
24859;SDS011;12936;52.006;4.350;2023-02-28T15:49:47;4.57;;;2.00;;
24859;SDS011;12936;52.006;4.350;2023-02-28T15:52:20;3.53;;;2.10;;
24859;SDS011;12936;52.006;4.350;2023-02-28T15:54:51;3.37;;;1.80;;
24859;SDS011;12936;52.006;4.350;2023-02-28T15:57:20;3.20;;;2.30;;
24859;SDS011;12936;52.006;4.350;2023-02-28T15:59:54;3.43;;;2.40;;
24859;SDS011;12936;52.006;4.350;2023-02-28T16:02:30;2.93;;;2.00;;
24859;SDS011;12936;52.006;4.350;2023-02-28T16:05:01;2.80;;;1.90;;
24859;SDS011;12936;52.006;4.350;2023-02-28T16:07:48;2.70;;;2.40;;
24859;SDS011;12936;52.006;4.350;2023-02-28T16:10:16;2.93;;;2.10;;
24859;SDS011;12936;52.006;4.350;2023-02-28T16:12:44;3.67;;;1.67;;
24859;SDS011;12936;52.006;4.350;2023-02-28T16:15:17;5.17;;;2.27;;